AirNav   Air Wisconsin pilot careers
 
 721 users online  

U08 Perkins Field Airport
Overton, Nevada, USA

GOING TO OVERTON?


FAA INFORMATION EFFECTIVE 07 DECEMBER 2017

Location

FAA Identifier: U08
Lat/Long: 36-34-05.2000N / 114-26-36.0000W
36-34.086667N / 114-26.600000W
36.5681111 / -114.4433333
(estimated)
Elevation: 1365.9 ft. / 416.3 m (surveyed)
Variation: 14E (1985)
From city: 2 miles N of OVERTON, NV
Time zone: UTC -8 (UTC -7 during Daylight Saving Time)
Zip code: 89021

Airport Operations

Airport use: Open to the public
Activation date: 06/1948
Control tower: no
ARTCC: LOS ANGELES CENTER
FSS: RENO FLIGHT SERVICE STATION
NOTAMs facility: RNO (NOTAM-D service available)
Attendance: THUR-MON DAYLIGHT HOURS
TUE & WED SVC AVBL ON CALL (702) 397-8457.
Pattern altitude: 2165.9 ft. MSL
Wind indicator: lighted
Segmented circle: yes
Lights: ACTVT MIRLS RY 13/31 - CTAF.
Beacon: white-green (lighted land airport)
Operates sunset to sunrise.

Airport Communications

CTAF/UNICOM: 122.8

Nearby radio navigation aids

VOR radial/distance  VOR name  Freq  Var
MMMr197/14.5MORMON MESA VORTAC114.3016E
BLDr016/39.9BOULDER CITY VORTAC116.7015E

Airport Services

Fuel available: 100
Oil available: ONLY ENOUGH OIL FOR ENG NEED, NO EXTRA SALES AVAILABLE.
Parking: tiedowns
Airframe service: NONE
Powerplant service: NONE
Bottled oxygen: NONE
Bulk oxygen: NONE

Runway Information

Runway 13/31

Dimensions: 4811 x 75 ft. / 1466 x 23 m
Surface: asphalt, in good condition
Weight bearing capacity: 
Single wheel: 30.0
Runway edge lights: medium intensity
Gradient: NW
RUNWAY 13  RUNWAY 31
Latitude: 36-34.431133N36-33.741918N
Longitude: 114-26.842670W114-26.356943W
Elevation: 1365.9 ft.1348.8 ft.
Gradient: 0.4%0.4% UP
Traffic pattern: leftright
Markings: nonprecision, in good conditionnonprecision, in good condition
Runway end identifier lights: nono
Touchdown point: yes, no lightsyes, no lights
Obstructions: 4 ft. fence, 380 ft. from runway, 45:1 slope to clear15 ft. road, 360 ft. from runway, 10:1 slope to clear

Airport Ownership and Management from official FAA records

Ownership: Publicly-owned
Owner: CLARK COUNTY
PO BOX 11005 AIRPORT STATION
LAS VEGAS, NV 89111
Phone 702-739-5211
Manager: KELLY BURNS
2730 AIRPORT DRIVE STE. 101
NORTH LAS VEGAS, NV 89032
Phone 702-261-3802
RESIDENT CARETAKER MIKE STIETZ 702-397-9617 AT AIRPORT.

Airport Operational Statistics

Aircraft based on the field: 12
Single engine airplanes: 10
Multi engine airplanes: 1
Ultralights: 1
    
Aircraft operations: avg 100/week *
62% local general aviation
38% transient general aviation
* for 12-month period ending 31 December 2015

Additional Remarks

ULTRALIGHT AND SKYDIVING ACTIVITY ONGOING ON OR NEAR THE ARPT.

Instrument Procedures

There are no published instrument procedures at U08.

Some nearby airports with instrument procedures:

KLSV - Nellis Air Force Base (35 nm SW)
KVGT - North Las Vegas Airport (42 nm SW)
KBVU - Boulder City Municipal Airport (42 nm SW)
KLAS - Mc Carran International Airport (45 nm SW)
KHND - Henderson Executive Airport (49 nm SW)
 
Loc | Ops | Rwys | IFR | FBO | Links
Com | Nav | Svcs | Stats | Notes


 
Area around U08 (Perkins Field Airport)
 
Road maps at: MapQuest Bing Google
 
Aerial photo
WARNING: Photo may not be current or correct
Aerial photo of U08 (Perkins Field Airport)
Photo courtesy of focalflight.com
Photo taken 09-Dec-2015
looking south.

Do you have a better or more recent aerial photo of Perkins Field Airport that you would like to share? If so, please send us your photo.

 
Sectional chart

 
Airport distance calculator
Flying to Perkins Field Airport? Find the distance to fly.

From to U08

Sunrise and sunset
Times for 18-Dec-2017
 Local
(UTC-8)
 Zulu
(UTC)
Morning civil twilight06:1714:17
Sunrise06:4614:46
Sunset16:2300:23
Evening civil twilight16:5200:52

Current date and time
Zulu (UTC)  18-Dec-2017 12:21:27
Local (UTC-8)  18-Dec-2017 04:21:27
 
METAR
KLSV 
35nm SW 
181158Z AUTO 17003KT 10SM CLR 05/M09 A3018 RMK AO2 SLP220 T00451089 10085 20032 50002 $
KBVU 
42nm SW 
181155Z AUTO VRB04KT 10SM 07/M10 A3020 RMK AO2
KVGT 
43nm SW 
181153Z 32009KT 10SM CLR 06/M10 A3017 RMK AO2 SLP238 T00561100 10094 20056 50003
KLAS 
45nm SW 
181156Z 20004KT 10SM FEW250 04/M09 A3017 RMK AO2 SLP218 T00441089 10094 20044 50002
KHND 
48nm SW 
181156Z AUTO 00000KT 10SM CLR 04/M09 A3019 RMK AO2 SLP231 T00391094 10078 20028 50002 $
TAF
KLSV 
35nm SW 
180700Z 1807/1913 34009KT 9999 FEW250 QNH3008INS BECMG 1817/1818 VRB06KT 9999 SKC QNH3018INS BECMG 1902/1903 33009KT 9999 SKC QNH3017INS TX15/1821Z TN01/1812Z
KVGT 
43nm SW 
181120Z 1812/1912 34008KT P6SM SCT250 FM181800 VRB05KT P6SM SCT250 FM190700 32006KT P6SM SCT250
NOTAMs
Click for the latest NOTAMs
NOTAMs are issued by the DoD/FAA and will open in a separate window not controlled by AirNav.

 

 
 

FBO, Fuel Providers, and Aircraft Ground Support

  
 Business Name 
 
 Contact 
 
 Services / Description 
 
Fuel Prices
 
Comments
  
Perkins Field 702-397-2716
[web site]
[email]
Airport management, Aviation fuel, Aircraft parking (ramp or tiedown)

More info about Perkins Field
100LL
SS $4.73 
 Updated 13-Dec-2017
 
   2 read write
SS=Self service
Update Fuel Prices
 

Would you like to see your business listed on this page?

 If your business provides an interesting product or service to pilots, flight crews, aircraft, or users of the Perkins Field Airport, you should consider listing it here.  To start the listing process, click on the button below
 
Add a business
 

Other Pages about Perkins Field Airport

Rhttp:/...
 
Update a link
 
Copyright © AirNav, LLC. All rights reserved. Privacy Policy  Contact